sensor_id;sensor_type;location;lat;lon;timestamp;pressure;altitude;pressure_sealevel;temperature;humidity
31403;BME280;18039;52.188;21.024;2022-09-28T00:01:28;74995.91;;;-141.45;100.00
31403;BME280;18039;52.188;21.024;2022-09-28T00:03:56;74991.84;;;-141.45;100.00
31403;BME280;18039;52.188;21.024;2022-09-28T00:06:26;74995.91;;;-141.45;100.00
31403;BME280;18039;52.188;21.024;2022-09-28T00:08:54;74999.97;;;-141.45;100.00
31403;BME280;18039;52.188;21.024;2022-09-28T00:11:23;74995.91;;;-141.45;100.00
31403;BME280;18039;52.188;21.024;2022-09-28T00:13:56;75004.00;;;-141.45;100.00
31403;BME280;18039;52.188;21.024;2022-09-28T00:16:27;74995.91;;;-141.45;100.00
31403;BME280;18039;52.188;21.024;2022-09-28T00:18:55;74999.97;;;-141.45;100.00
31403;BME280;18039;52.188;21.024;2022-09-28T00:21:25;74999.97;;;-141.45;100.00
31403;BME280;18039;52.188;21.024;2022-09-28T00:23:54;75012.13;;;-141.45;100.00
31403;BME280;18039;52.188;21.024;2022-09-28T00:27:00;75020.22;;;-141.45;100.00
31403;BME280;18039;52.188;21.024;2022-09-28T00:29:33;75032.38;;;-141.45;100.00
31403;BME280;18039;52.188;21.024;2022-09-28T00:32:06;75040.47;;;-141.45;100.00
31403;BME280;18039;52.188;21.024;2022-09-28T00:34:40;75038.47;;;-141.45;100.00
31403;BME280;18039;52.188;21.024;2022-09-28T00:37:09;75052.66;;;-141.45;100.00
31403;BME280;18039;52.188;21.024;2022-09-28T00:39:38;75068.84;;;-141.45;100.00
31403;BME280;18039;52.188;21.024;2022-09-28T00:44:53;75101.28;;;-141.45;100.00
31403;BME280;18039;52.188;21.024;2022-09-28T00:47:27;75083.03;;;-141.45;100.00
31403;BME280;18039;52.188;21.024;2022-09-28T00:50:02;75091.13;;;-141.45;100.00
31403;BME280;18039;52.188;21.024;2022-09-28T00:52:41;75097.22;;;-141.45;100.00
31403;BME280;18039;52.188;21.024;2022-09-28T00:55:15;75101.28;;;-141.45;100.00
31403;BME280;18039;52.188;21.024;2022-09-28T00:57:49;75109.38;;;-141.45;100.00
31403;BME280;18039;52.188;21.024;2022-09-28T01:00:18;75109.38;;;-141.45;100.00
31403;BME280;18039;52.188;21.024;2022-09-28T01:02:46;75113.44;;;-141.45;100.00
31403;BME280;18039;52.188;21.024;2022-09-28T01:05:17;75117.47;;;-141.45;100.00
31403;BME280;18039;52.188;21.024;2022-09-28T01:07:50;75117.47;;;-141.45;100.00
31403;BME280;18039;52.188;21.024;2022-09-28T01:10:17;75125.59;;;-141.45;100.00
31403;BME280;18039;52.188;21.024;2022-09-28T01:12:44;75121.53;;;-141.45;100.00
31403;BME280;18039;52.188;21.024;2022-09-28T01:15:12;75121.53;;;-141.45;100.00
31403;BME280;18039;52.188;21.024;2022-09-28T01:20:32;75129.63;;;-141.45;100.00
31403;BME280;18039;52.188;21.024;2022-09-28T01:23:08;75129.63;;;-141.45;100.00
31403;BME280;18039;52.188;21.024;2022-09-28T01:28:18;75133.69;;;-141.45;100.00
31403;BME280;18039;52.188;21.024;2022-09-28T01:33:24;75133.69;;;-141.45;100.00
31403;BME280;18039;52.188;21.024;2022-09-28T01:36:01;75133.69;;;-141.45;100.00
31403;BME280;18039;52.188;21.024;2022-09-28T01:38:36;75135.72;;;-141.45;100.00
31403;BME280;18039;52.188;21.024;2022-09-28T01:41:06;75133.69;;;-141.45;100.00
31403;BME280;18039;52.188;21.024;2022-09-28T01:43:38;75137.75;;;-141.45;100.00
31403;BME280;18039;52.188;21.024;2022-09-28T01:46:21;75137.75;;;-141.45;100.00
31403;BME280;18039;52.188;21.024;2022-09-28T01:48:53;75137.75;;;-141.45;100.00
31403;BME280;18039;52.188;21.024;2022-09-28T01:51:34;75141.78;;;-141.45;100.00
31403;BME280;18039;52.188;21.024;2022-09-28T01:54:09;75137.75;;;-141.45;100.00
31403;BME280;18039;52.188;21.024;2022-09-28T01:56:44;75139.78;;;-141.45;100.00
31403;BME280;18039;52.188;21.024;2022-09-28T01:59:16;75137.75;;;-141.45;100.00
31403;BME280;18039;52.188;21.024;2022-09-28T02:01:52;75145.84;;;-141.45;100.00
31403;BME280;18039;52.188;21.024;2022-09-28T02:04:30;75155.97;;;-141.45;100.00
31403;BME280;18039;52.188;21.024;2022-09-28T02:07:03;75158.00;;;-141.45;100.00
31403;BME280;18039;52.188;21.024;2022-09-28T02:09:44;75160.03;;;-141.45;100.00
31403;BME280;18039;52.188;21.024;2022-09-28T02:12:18;75164.09;;;-141.45;100.00
31403;BME280;18039;52.188;21.024;2022-09-28T02:14:48;75174.22;;;-141.45;100.00
31403;BME280;18039;52.188;21.024;2022-09-28T02:17:19;75174.22;;;-141.45;100.00
31403;BME280;18039;52.188;21.024;2022-09-28T02:19:46;75174.22;;;-141.45;100.00
31403;BME280;18039;52.188;21.024;2022-09-28T02:22:30;75178.28;;;-141.45;100.00
31403;BME280;18039;52.188;21.024;2022-09-28T02:27:42;75178.28;;;-141.45;100.00
31403;BME280;18039;52.188;21.024;2022-09-28T02:30:11;75174.22;;;-141.45;100.00
31403;BME280;18039;52.188;21.024;2022-09-28T02:32:41;75174.22;;;-141.45;100.00
31403;BME280;18039;52.188;21.024;2022-09-28T02:35:13;75174.22;;;-141.45;100.00
31403;BME280;18039;52.188;21.024;2022-09-28T02:37:41;75170.16;;;-141.45;100.00
31403;BME280;18039;52.188;21.024;2022-09-28T02:40:14;75182.31;;;-141.45;100.00
31403;BME280;18039;52.188;21.024;2022-09-28T02:45:28;75186.38;;;-141.45;100.00
31403;BME280;18039;52.188;21.024;2022-09-28T02:48:24;75186.38;;;-141.45;100.00
31403;BME280;18039;52.188;21.024;2022-09-28T02:54:14;75178.28;;;-141.45;100.00
31403;BME280;18039;52.188;21.024;2022-09-28T02:56:57;75178.28;;;-141.45;100.00
31403;BME280;18039;52.188;21.024;2022-09-28T03:05:02;75178.28;;;-141.45;100.00
31403;BME280;18039;52.188;21.024;2022-09-28T03:07:36;75164.09;;;-141.45;100.00
31403;BME280;18039;52.188;21.024;2022-09-28T03:10:07;75162.06;;;-141.45;100.00
31403;BME280;18039;52.188;21.024;2022-09-28T03:12:38;75153.94;;;-141.45;100.00
31403;BME280;18039;52.188;21.024;2022-09-28T03:17:33;75149.91;;;-141.45;100.00
31403;BME280;18039;52.188;21.024;2022-09-28T03:20:01;75141.78;;;-141.45;100.00
31403;BME280;18039;52.188;21.024;2022-09-28T03:22:28;75137.75;;;-141.45;100.00
31403;BME280;18039;52.188;21.024;2022-09-28T03:24:56;75133.69;;;-141.45;100.00
31403;BME280;18039;52.188;21.024;2022-09-28T03:27:23;75123.56;;;-141.45;100.00
31403;BME280;18039;52.188;21.024;2022-09-28T03:29:50;75117.47;;;-141.45;100.00
31403;BME280;18039;52.188;21.024;2022-09-28T03:32:17;75113.44;;;-141.45;100.00
31403;BME280;18039;52.188;21.024;2022-09-28T03:34:44;75111.41;;;-141.45;100.00
31403;BME280;18039;52.188;21.024;2022-09-28T03:37:11;75109.38;;;-141.45;100.00
31403;BME280;18039;52.188;21.024;2022-09-28T03:39:38;75105.31;;;-141.45;100.00
31403;BME280;18039;52.188;21.024;2022-09-28T03:42:05;75105.31;;;-141.45;100.00
31403;BME280;18039;52.188;21.024;2022-09-28T03:44:35;75101.28;;;-141.45;100.00
31403;BME280;18039;52.188;21.024;2022-09-28T03:47:02;75109.38;;;-141.45;100.00
31403;BME280;18039;52.188;21.024;2022-09-28T03:49:29;75109.38;;;-141.45;100.00
31403;BME280;18039;52.188;21.024;2022-09-28T03:51:56;75113.44;;;-141.45;100.00
31403;BME280;18039;52.188;21.024;2022-09-28T03:54:23;75113.44;;;-141.45;100.00
31403;BME280;18039;52.188;21.024;2022-09-28T03:56:50;75107.34;;;-141.45;100.00
31403;BME280;18039;52.188;21.024;2022-09-28T03:59:18;75117.47;;;-141.45;100.00
31403;BME280;18039;52.188;21.024;2022-09-28T04:01:48;75119.50;;;-141.45;100.00
31403;BME280;18039;52.188;21.024;2022-09-28T04:04:15;75117.47;;;-141.45;100.00
31403;BME280;18039;52.188;21.024;2022-09-28T04:06:42;75109.38;;;-141.45;100.00
31403;BME280;18039;52.188;21.024;2022-09-28T04:09:10;75113.44;;;-141.45;100.00
31403;BME280;18039;52.188;21.024;2022-09-28T04:11:37;75117.47;;;-141.45;100.00
31403;BME280;18039;52.188;21.024;2022-09-28T04:14:24;75129.63;;;-141.45;100.00
31403;BME280;18039;52.188;21.024;2022-09-28T04:16:51;75137.75;;;-141.45;100.00
31403;BME280;18039;52.188;21.024;2022-09-28T04:19:22;75139.78;;;-141.45;100.00
31403;BME280;18039;52.188;21.024;2022-09-28T04:22:07;75141.78;;;-141.45;100.00
31403;BME280;18039;52.188;21.024;2022-09-28T04:24:36;75153.94;;;-141.45;100.00
31403;BME280;18039;52.188;21.024;2022-09-28T04:27:04;75174.22;;;-141.45;100.00
31403;BME280;18039;52.188;21.024;2022-09-28T04:29:50;75170.16;;;-141.45;100.00
31403;BME280;18039;52.188;21.024;2022-09-28T04:32:17;75180.28;;;-141.45;100.00
31403;BME280;18039;52.188;21.024;2022-09-28T04:34:44;75182.31;;;-141.45;100.00
31403;BME280;18039;52.188;21.024;2022-09-28T04:37:11;75182.31;;;-141.45;100.00
31403;BME280;18039;52.188;21.024;2022-09-28T04:39:38;75182.31;;;-141.45;100.00
31403;BME280;18039;52.188;21.024;2022-09-28T04:42:12;75186.38;;;-141.45;100.00
31403;BME280;18039;52.188;21.024;2022-09-28T04:44:39;75194.47;;;-141.45;100.00
31403;BME280;18039;52.188;21.024;2022-09-28T04:47:07;75198.53;;;-141.45;100.00
31403;BME280;18039;52.188;21.024;2022-09-28T04:49:54;75190.44;;;-141.45;100.00
31403;BME280;18039;52.188;21.024;2022-09-28T04:52:35;75194.47;;;-141.45;100.00
31403;BME280;18039;52.188;21.024;2022-09-28T04:55:03;75196.50;;;-141.45;100.00
31403;BME280;18039;52.188;21.024;2022-09-28T04:57:33;75194.47;;;-141.45;100.00
31403;BME280;18039;52.188;21.024;2022-09-28T05:00:00;75190.44;;;-141.45;100.00
31403;BME280;18039;52.188;21.024;2022-09-28T05:02:29;75194.47;;;-141.45;100.00
31403;BME280;18039;52.188;21.024;2022-09-28T05:05:22;75188.41;;;-141.45;100.00
31403;BME280;18039;52.188;21.024;2022-09-28T05:08:27;75202.59;;;-141.45;100.00
31403;BME280;18039;52.188;21.024;2022-09-28T05:10:59;75202.59;;;-141.45;100.00
31403;BME280;18039;52.188;21.024;2022-09-28T05:13:28;75202.59;;;-141.45;100.00
31403;BME280;18039;52.188;21.024;2022-09-28T05:15:57;75206.63;;;-141.45;100.00
31403;BME280;18039;52.188;21.024;2022-09-28T05:18:33;75210.69;;;-141.45;100.00
31403;BME280;18039;52.188;21.024;2022-09-28T05:21:03;75214.75;;;-141.45;100.00
31403;BME280;18039;52.188;21.024;2022-09-28T05:23:30;75210.69;;;-141.45;100.00
31403;BME280;18039;52.188;21.024;2022-09-28T05:26:00;75206.63;;;-141.45;100.00
31403;BME280;18039;52.188;21.024;2022-09-28T05:28:31;75204.63;;;-141.45;100.00
31403;BME280;18039;52.188;21.024;2022-09-28T05:31:27;75218.78;;;-141.45;100.00
31403;BME280;18039;52.188;21.024;2022-09-28T05:34:03;75232.97;;;-141.45;100.00
31403;BME280;18039;52.188;21.024;2022-09-28T05:36:30;75243.09;;;-141.45;100.00
31403;BME280;18039;52.188;21.024;2022-09-28T05:38:58;75247.16;;;-141.45;100.00
31403;BME280;18039;52.188;21.024;2022-09-28T05:41:25;75255.25;;;-141.45;100.00
31403;BME280;18039;52.188;21.024;2022-09-28T05:43:52;75263.38;;;-141.45;100.00
31403;BME280;18039;52.188;21.024;2022-09-28T05:46:21;75263.38;;;-141.45;100.00
31403;BME280;18039;52.188;21.024;2022-09-28T05:48:50;75267.44;;;-141.45;100.00
31403;BME280;18039;52.188;21.024;2022-09-28T05:51:18;75275.53;;;-141.45;100.00
31403;BME280;18039;52.188;21.024;2022-09-28T05:53:46;75275.53;;;-141.45;100.00
31403;BME280;18039;52.188;21.024;2022-09-28T05:56:14;75271.47;;;-141.45;100.00
31403;BME280;18039;52.188;21.024;2022-09-28T05:58:43;75273.50;;;-141.45;100.00
31403;BME280;18039;52.188;21.024;2022-09-28T06:01:11;75261.34;;;-141.45;100.00
31403;BME280;18039;52.188;21.024;2022-09-28T06:03:56;75261.34;;;-141.45;100.00
31403;BME280;18039;52.188;21.024;2022-09-28T06:06:24;75259.31;;;-141.45;100.00
31403;BME280;18039;52.188;21.024;2022-09-28T06:08:51;75255.25;;;-141.45;100.00
31403;BME280;18039;52.188;21.024;2022-09-28T06:11:44;75251.22;;;-141.45;100.00
31403;BME280;18039;52.188;21.024;2022-09-28T06:14:31;75271.47;;;-141.45;100.00
31403;BME280;18039;52.188;21.024;2022-09-28T06:16:58;75279.59;;;-141.45;100.00
31403;BME280;18039;52.188;21.024;2022-09-28T06:19:25;75291.75;;;-141.45;100.00
31403;BME280;18039;52.188;21.024;2022-09-28T06:22:19;75279.59;;;-141.45;100.00
31403;BME280;18039;52.188;21.024;2022-09-28T06:24:56;75279.59;;;-141.45;100.00
31403;BME280;18039;52.188;21.024;2022-09-28T06:27:24;75283.63;;;-141.45;100.00
31403;BME280;18039;52.188;21.024;2022-09-28T06:29:50;75279.59;;;-141.45;100.00
31403;BME280;18039;52.188;21.024;2022-09-28T06:32:18;75277.56;;;-141.45;100.00
31403;BME280;18039;52.188;21.024;2022-09-28T06:34:47;75271.47;;;-141.45;100.00
31403;BME280;18039;52.188;21.024;2022-09-28T06:37:21;75273.50;;;-141.45;100.00
31403;BME280;18039;52.188;21.024;2022-09-28T06:39:49;75273.50;;;-141.45;100.00
31403;BME280;18039;52.188;21.024;2022-09-28T06:42:16;75259.31;;;-141.45;100.00
31403;BME280;18039;52.188;21.024;2022-09-28T06:45:03;75253.25;;;-141.45;100.00
31403;BME280;18039;52.188;21.024;2022-09-28T06:48:02;75243.09;;;-141.45;100.00
31403;BME280;18039;52.188;21.024;2022-09-28T06:50:43;75235.00;;;-141.45;100.00
31403;BME280;18039;52.188;21.024;2022-09-28T06:53:23;75222.84;;;-141.45;100.00
31403;BME280;18039;52.188;21.024;2022-09-28T06:56:09;75202.59;;;-141.45;100.00
31403;BME280;18039;52.188;21.024;2022-09-28T06:58:36;75196.50;;;-141.45;100.00
31403;BME280;18039;52.188;21.024;2022-09-28T07:01:03;75206.63;;;-141.45;100.00
31403;BME280;18039;52.188;21.024;2022-09-28T07:03:40;75222.84;;;-141.45;100.00
31403;BME280;18039;52.188;21.024;2022-09-28T07:06:46;75214.75;;;-141.45;100.00
31403;BME280;18039;52.188;21.024;2022-09-28T07:09:32;75220.81;;;-141.45;100.00
31403;BME280;18039;52.188;21.024;2022-09-28T07:12:12;75222.84;;;-141.45;100.00
31403;BME280;18039;52.188;21.024;2022-09-28T07:14:46;75226.91;;;-141.45;100.00
31403;BME280;18039;52.188;21.024;2022-09-28T07:17:15;75230.94;;;-141.45;100.00
31403;BME280;18039;52.188;21.024;2022-09-28T07:19:42;75235.00;;;-141.45;100.00
31403;BME280;18039;52.188;21.024;2022-09-28T07:22:10;75216.78;;;-141.45;100.00
31403;BME280;18039;52.188;21.024;2022-09-28T07:24:46;75224.88;;;-141.45;100.00
31403;BME280;18039;52.188;21.024;2022-09-28T07:27:32;75214.75;;;-141.45;100.00
31403;BME280;18039;52.188;21.024;2022-09-28T07:30:18;75218.78;;;-141.45;100.00
31403;BME280;18039;52.188;21.024;2022-09-28T07:33:04;75222.84;;;-141.45;100.00
31403;BME280;18039;52.188;21.024;2022-09-28T07:35:37;75226.91;;;-141.45;100.00
31403;BME280;18039;52.188;21.024;2022-09-28T07:38:06;75230.94;;;-141.45;100.00
31403;BME280;18039;52.188;21.024;2022-09-28T07:40:34;75210.69;;;-141.45;100.00
31403;BME280;18039;52.188;21.024;2022-09-28T07:43:21;75214.75;;;-141.45;100.00
31403;BME280;18039;52.188;21.024;2022-09-28T07:45:52;75198.53;;;-141.45;100.00
31403;BME280;18039;52.188;21.024;2022-09-28T07:48:21;75196.50;;;-141.45;100.00
31403;BME280;18039;52.188;21.024;2022-09-28T07:51:13;75194.47;;;-141.45;100.00
31403;BME280;18039;52.188;21.024;2022-09-28T07:53:45;75178.28;;;-141.45;100.00
31403;BME280;18039;52.188;21.024;2022-09-28T07:56:13;75198.53;;;-141.45;100.00
31403;BME280;18039;52.188;21.024;2022-09-28T07:58:52;75210.69;;;-141.45;100.00
31403;BME280;18039;52.188;21.024;2022-09-28T08:01:37;75216.78;;;-141.45;100.00
31403;BME280;18039;52.188;21.024;2022-09-28T08:04:06;75200.56;;;-141.45;100.00
31403;BME280;18039;52.188;21.024;2022-09-28T08:06:34;75212.72;;;-141.45;100.00
31403;BME280;18039;52.188;21.024;2022-09-28T08:09:03;75196.50;;;-141.45;100.00
31403;BME280;18039;52.188;21.024;2022-09-28T08:11:49;75194.47;;;-141.45;100.00
31403;BME280;18039;52.188;21.024;2022-09-28T08:14:34;75194.47;;;-141.45;100.00
31403;BME280;18039;52.188;21.024;2022-09-28T08:17:15;75190.44;;;-141.45;100.00
31403;BME280;18039;52.188;21.024;2022-09-28T08:19:45;75192.44;;;-141.45;100.00
31403;BME280;18039;52.188;21.024;2022-09-28T08:22:31;75170.16;;;-141.45;100.00
31403;BME280;18039;52.188;21.024;2022-09-28T08:24:59;75168.13;;;-141.45;100.00
31403;BME280;18039;52.188;21.024;2022-09-28T08:27:27;75162.06;;;-141.45;100.00
31403;BME280;18039;52.188;21.024;2022-09-28T08:29:55;75149.91;;;-141.45;100.00
31403;BME280;18039;52.188;21.024;2022-09-28T08:32:46;75178.28;;;-141.45;100.00
31403;BME280;18039;52.188;21.024;2022-09-28T08:35:34;75166.09;;;-141.45;100.00
31403;BME280;18039;52.188;21.024;2022-09-28T08:38:27;75149.91;;;-141.45;100.00
31403;BME280;18039;52.188;21.024;2022-09-28T08:41:02;75139.78;;;-141.45;100.00
31403;BME280;18039;52.188;21.024;2022-09-28T08:44:02;75149.91;;;-141.45;100.00
31403;BME280;18039;52.188;21.024;2022-09-28T08:47:19;75166.09;;;-141.45;100.00
31403;BME280;18039;52.188;21.024;2022-09-28T08:50:35;75166.09;;;-141.45;100.00
31403;BME280;18039;52.188;21.024;2022-09-28T08:56:08;75168.13;;;-141.45;100.00
31403;BME280;18039;52.188;21.024;2022-09-28T08:58:40;75174.22;;;-141.45;100.00
31403;BME280;18039;52.188;21.024;2022-09-28T09:01:09;75158.00;;;-141.45;100.00
31403;BME280;18039;52.188;21.024;2022-09-28T09:03:44;75133.69;;;-141.45;100.00
31403;BME280;18039;52.188;21.024;2022-09-28T09:06:54;75121.53;;;-141.45;100.00
31403;BME280;18039;52.188;21.024;2022-09-28T09:12:12;75089.13;;;-141.45;100.00
31403;BME280;18039;52.188;21.024;2022-09-28T09:18:53;75048.59;;;-141.45;100.00
31403;BME280;18039;52.188;21.024;2022-09-28T09:21:53;75056.69;;;-141.45;100.00
31403;BME280;18039;52.188;21.024;2022-09-28T09:24:25;75072.91;;;-141.45;98.10
31403;BME280;18039;52.188;21.024;2022-09-28T09:27:03;75060.75;;;-141.45;99.58
31403;BME280;18039;52.188;21.024;2022-09-28T09:35:18;75032.38;;;-141.45;100.00
31403;BME280;18039;52.188;21.024;2022-09-28T09:47:29;75056.69;;;-141.45;98.85
31403;BME280;18039;52.188;21.024;2022-09-28T09:50:07;75060.75;;;-141.45;96.66
31403;BME280;18039;52.188;21.024;2022-09-28T09:52:46;75054.66;;;-141.45;92.75
31403;BME280;18039;52.188;21.024;2022-09-28T09:58:21;75081.00;;;-141.45;95.40
31403;BME280;18039;52.188;21.024;2022-09-28T10:01:04;75093.16;;;-141.45;95.67
31403;BME280;18039;52.188;21.024;2022-09-28T10:04:05;75097.22;;;-141.45;93.87
31403;BME280;18039;52.188;21.024;2022-09-28T10:06:36;75089.13;;;-141.45;95.39
31403;BME280;18039;52.188;21.024;2022-09-28T10:09:26;75097.22;;;-141.45;94.58
31403;BME280;18039;52.188;21.024;2022-09-28T10:12:08;75089.13;;;-141.45;97.52
31403;BME280;18039;52.188;21.024;2022-09-28T10:14:38;75064.81;;;-141.45;91.58
31403;BME280;18039;52.188;21.024;2022-09-28T10:17:11;75048.59;;;-141.45;89.82
31403;BME280;18039;52.188;21.024;2022-09-28T10:19:58;75038.47;;;-141.45;95.38
31403;BME280;18039;52.188;21.024;2022-09-28T10:22:42;75024.28;;;-141.45;88.85
31403;BME280;18039;52.188;21.024;2022-09-28T10:25:14;75008.06;;;-141.45;87.94
31403;BME280;18039;52.188;21.024;2022-09-28T10:27:43;75020.22;;;-141.45;93.66
31403;BME280;18039;52.188;21.024;2022-09-28T10:30:20;75024.28;;;-141.45;93.71
31403;BME280;18039;52.188;21.024;2022-09-28T10:32:53;75032.38;;;-141.45;92.36
31403;BME280;18039;52.188;21.024;2022-09-28T10:35:30;75008.06;;;-141.45;94.88
31403;BME280;18039;52.188;21.024;2022-09-28T10:38:16;74991.84;;;-141.45;92.04
31403;BME280;18039;52.188;21.024;2022-09-28T10:40:53;74973.63;;;-141.45;92.95
31403;BME280;18039;52.188;21.024;2022-09-28T10:43:36;74983.75;;;-141.45;86.15
31403;BME280;18039;52.188;21.024;2022-09-28T10:46:11;74967.53;;;-141.45;79.08
31403;BME280;18039;52.188;21.024;2022-09-28T10:51:11;74920.94;;;-141.45;72.83
31403;BME280;18039;52.188;21.024;2022-09-28T10:53:40;74890.56;;;-141.45;73.52
31403;BME280;18039;52.188;21.024;2022-09-28T10:56:36;74878.41;;;-141.45;72.61
31403;BME280;18039;52.188;21.024;2022-09-28T11:02:19;74870.28;;;-141.45;68.99
31403;BME280;18039;52.188;21.024;2022-09-28T11:04:59;74862.19;;;-141.45;67.56
31403;BME280;18039;52.188;21.024;2022-09-28T11:07:43;74854.09;;;-141.45;70.90
31403;BME280;18039;52.188;21.024;2022-09-28T11:10:27;74850.03;;;-141.45;67.29
31403;BME280;18039;52.188;21.024;2022-09-28T11:13:08;74841.94;;;-141.45;66.02
31403;BME280;18039;52.188;21.024;2022-09-28T11:15:40;74841.94;;;-141.45;66.27
31403;BME280;18039;52.188;21.024;2022-09-28T11:18:28;74829.78;;;-141.45;67.14
31403;BME280;18039;52.188;21.024;2022-09-28T11:21:14;74813.56;;;-141.45;66.40
31403;BME280;18039;52.188;21.024;2022-09-28T11:24:02;74781.16;;;-141.45;65.56
31403;BME280;18039;52.188;21.024;2022-09-28T11:26:40;74760.88;;;-141.45;66.07
31403;BME280;18039;52.188;21.024;2022-09-28T11:32:41;74752.78;;;-141.45;65.76
31403;BME280;18039;52.188;21.024;2022-09-28T11:35:21;74750.75;;;-141.45;65.66
31403;BME280;18039;52.188;21.024;2022-09-28T11:38:06;74740.63;;;-141.45;64.96
31403;BME280;18039;52.188;21.024;2022-09-28T11:44:02;74738.59;;;-141.45;63.41
31403;BME280;18039;52.188;21.024;2022-09-28T11:46:50;74746.69;;;-141.45;62.82
31403;BME280;18039;52.188;21.024;2022-09-28T11:49:29;74766.97;;;-141.45;63.62
31403;BME280;18039;52.188;21.024;2022-09-28T11:52:48;74789.25;;;-141.45;60.69
31403;BME280;18039;52.188;21.024;2022-09-28T11:55:15;74821.66;;;-141.45;60.75
31403;BME280;18039;52.188;21.024;2022-09-28T11:57:49;74833.81;;;-141.45;60.81
31403;BME280;18039;52.188;21.024;2022-09-28T12:00:21;74841.94;;;-141.45;61.55
31403;BME280;18039;52.188;21.024;2022-09-28T12:03:03;74829.78;;;-141.45;60.33
31403;BME280;18039;52.188;21.024;2022-09-28T12:05:43;74821.66;;;-141.45;61.30
31403;BME280;18039;52.188;21.024;2022-09-28T12:08:18;74811.53;;;-141.45;61.97
31403;BME280;18039;52.188;21.024;2022-09-28T12:11:10;74809.50;;;-141.45;61.57
31403;BME280;18039;52.188;21.024;2022-09-28T12:14:00;74811.53;;;-141.45;61.34
31403;BME280;18039;52.188;21.024;2022-09-28T12:16:55;74793.31;;;-141.45;62.25
31403;BME280;18039;52.188;21.024;2022-09-28T12:19:42;74760.88;;;-141.45;63.07
31403;BME280;18039;52.188;21.024;2022-09-28T12:22:22;74728.47;;;-141.45;62.90
31403;BME280;18039;52.188;21.024;2022-09-28T12:24:51;74712.25;;;-141.45;62.34
31403;BME280;18039;52.188;21.024;2022-09-28T12:30:10;74720.38;;;-141.45;57.84
31403;BME280;18039;52.188;21.024;2022-09-28T12:32:49;74704.16;;;-141.45;59.41
31403;BME280;18039;52.188;21.024;2022-09-28T12:35:32;74700.09;;;-141.45;60.35
31403;BME280;18039;52.188;21.024;2022-09-28T12:43:57;74661.59;;;-141.45;59.17
31403;BME280;18039;52.188;21.024;2022-09-28T12:46:48;74659.59;;;-141.45;60.02
31403;BME280;18039;52.188;21.024;2022-09-28T12:49:31;74655.53;;;-141.45;58.75
31403;BME280;18039;52.188;21.024;2022-09-28T12:52:36;74687.94;;;-141.45;59.21
31403;BME280;18039;52.188;21.024;2022-09-28T12:57:53;74704.16;;;-141.45;60.79
31403;BME280;18039;52.188;21.024;2022-09-28T13:00:25;74710.22;;;-141.45;61.87
31403;BME280;18039;52.188;21.024;2022-09-28T13:03:13;74704.16;;;-141.45;61.92
31403;BME280;18039;52.188;21.024;2022-09-28T13:08:56;74671.75;;;-141.45;63.33
31403;BME280;18039;52.188;21.024;2022-09-28T13:19:58;74687.94;;;-141.45;62.79
31403;BME280;18039;52.188;21.024;2022-09-28T13:25:26;74683.91;;;-141.45;63.38
31403;BME280;18039;52.188;21.024;2022-09-28T13:27:59;74687.94;;;-141.45;62.54
31403;BME280;18039;52.188;21.024;2022-09-28T13:30:31;74675.78;;;-141.45;62.64
31403;BME280;18039;52.188;21.024;2022-09-28T13:33:02;74677.81;;;-141.45;62.71
31403;BME280;18039;52.188;21.024;2022-09-28T13:35:30;74673.78;;;-141.45;62.58
31403;BME280;18039;52.188;21.024;2022-09-28T13:43:59;74677.81;;;-141.45;62.24
31403;BME280;18039;52.188;21.024;2022-09-28T13:51:50;74671.75;;;-141.45;59.88
31403;BME280;18039;52.188;21.024;2022-09-28T13:57:42;74675.78;;;-141.45;57.97
31403;BME280;18039;52.188;21.024;2022-09-28T14:02:44;74687.94;;;-141.45;58.34
31403;BME280;18039;52.188;21.024;2022-09-28T14:16:34;74732.53;;;-141.45;59.24
31403;BME280;18039;52.188;21.024;2022-09-28T14:22:05;74744.69;;;-141.45;59.24
31403;BME280;18039;52.188;21.024;2022-09-28T14:24:59;74728.47;;;-141.45;59.43
31403;BME280;18039;52.188;21.024;2022-09-28T14:27:47;74724.41;;;-141.45;59.42
31403;BME280;18039;52.188;21.024;2022-09-28T14:30:26;74726.44;;;-141.45;59.10
31403;BME280;18039;52.188;21.024;2022-09-28T14:32:56;74726.44;;;-141.45;60.06
31403;BME280;18039;52.188;21.024;2022-09-28T14:36:00;74726.44;;;-141.45;59.96
31403;BME280;18039;52.188;21.024;2022-09-28T14:38:43;74728.47;;;-141.45;60.04
31403;BME280;18039;52.188;21.024;2022-09-28T14:41:40;74728.47;;;-141.45;61.24
31403;BME280;18039;52.188;21.024;2022-09-28T14:44:11;74716.31;;;-141.45;61.64
31403;BME280;18039;52.188;21.024;2022-09-28T14:46:40;74716.31;;;-141.45;61.33
31403;BME280;18039;52.188;21.024;2022-09-28T14:54:20;74752.78;;;-141.45;61.76
31403;BME280;18039;52.188;21.024;2022-09-28T14:57:04;74764.94;;;-141.45;62.60
31403;BME280;18039;52.188;21.024;2022-09-28T14:59:40;74777.09;;;-141.45;62.61
31403;BME280;18039;52.188;21.024;2022-09-28T15:02:18;74781.16;;;-141.45;62.67
31403;BME280;18039;52.188;21.024;2022-09-28T15:04:56;74795.31;;;-141.45;62.96
31403;BME280;18039;52.188;21.024;2022-09-28T15:07:28;74805.47;;;-141.45;63.07
31403;BME280;18039;52.188;21.024;2022-09-28T15:09:59;74805.47;;;-141.45;63.45
31403;BME280;18039;52.188;21.024;2022-09-28T15:12:29;74797.34;;;-141.45;63.76
31403;BME280;18039;52.188;21.024;2022-09-28T15:15:05;74801.41;;;-141.45;63.87
31403;BME280;18039;52.188;21.024;2022-09-28T15:17:36;74813.56;;;-141.45;63.82